sensor_id;sensor_type;location;lat;lon;timestamp;temperature;humidity
1461;DHT22;724;49.910;12.530;2023-04-03T00:02:01;0.50;1.00
1461;DHT22;724;49.910;12.530;2023-04-03T00:04:28;0.60;1.00
1461;DHT22;724;49.910;12.530;2023-04-03T00:06:56;0.50;1.00
1461;DHT22;724;49.910;12.530;2023-04-03T00:09:24;0.60;1.00
1461;DHT22;724;49.910;12.530;2023-04-03T00:11:51;0.60;1.00
1461;DHT22;724;49.910;12.530;2023-04-03T00:14:18;0.50;1.00
1461;DHT22;724;49.910;12.530;2023-04-03T00:16:45;0.50;1.00
1461;DHT22;724;49.910;12.530;2023-04-03T00:19:11;0.50;1.00
1461;DHT22;724;49.910;12.530;2023-04-03T00:21:39;0.50;1.00
1461;DHT22;724;49.910;12.530;2023-04-03T00:24:06;0.50;1.00
1461;DHT22;724;49.910;12.530;2023-04-03T00:26:34;0.50;1.00
1461;DHT22;724;49.910;12.530;2023-04-03T00:29:01;0.50;1.00
1461;DHT22;724;49.910;12.530;2023-04-03T00:31:28;0.50;1.00
1461;DHT22;724;49.910;12.530;2023-04-03T00:33:55;0.50;1.00
1461;DHT22;724;49.910;12.530;2023-04-03T00:36:21;0.50;1.00
1461;DHT22;724;49.910;12.530;2023-04-03T00:38:48;0.50;1.00
1461;DHT22;724;49.910;12.530;2023-04-03T00:41:15;0.50;1.00
1461;DHT22;724;49.910;12.530;2023-04-03T00:43:43;0.50;1.00
1461;DHT22;724;49.910;12.530;2023-04-03T00:46:10;0.50;1.00
1461;DHT22;724;49.910;12.530;2023-04-03T00:48:40;0.40;1.00
1461;DHT22;724;49.910;12.530;2023-04-03T00:51:11;0.50;1.00
1461;DHT22;724;49.910;12.530;2023-04-03T00:53:43;0.50;1.00
1461;DHT22;724;49.910;12.530;2023-04-03T00:56:13;0.40;1.00
1461;DHT22;724;49.910;12.530;2023-04-03T00:58:47;0.40;1.00
1461;DHT22;724;49.910;12.530;2023-04-03T01:01:18;0.40;1.00
1461;DHT22;724;49.910;12.530;2023-04-03T01:03:46;0.40;1.00
1461;DHT22;724;49.910;12.530;2023-04-03T01:06:14;0.50;11.20
1461;DHT22;724;49.910;12.530;2023-04-03T01:08:43;0.50;29.60
1461;DHT22;724;49.910;12.530;2023-04-03T01:11:12;0.40;56.60
1461;DHT22;724;49.910;12.530;2023-04-03T01:13:39;0.50;90.70
1461;DHT22;724;49.910;12.530;2023-04-03T01:16:08;0.40;99.90
1461;DHT22;724;49.910;12.530;2023-04-03T01:18:36;0.40;99.90
1461;DHT22;724;49.910;12.530;2023-04-03T01:21:50;0.40;99.90
1461;DHT22;724;49.910;12.530;2023-04-03T01:24:32;0.40;99.90
1461;DHT22;724;49.910;12.530;2023-04-03T01:27:02;0.40;99.90
1461;DHT22;724;49.910;12.530;2023-04-03T01:29:30;0.40;99.90
1461;DHT22;724;49.910;12.530;2023-04-03T01:31:59;0.40;99.90
1461;DHT22;724;49.910;12.530;2023-04-03T01:34:27;0.40;99.90
1461;DHT22;724;49.910;12.530;2023-04-03T01:36:55;0.40;99.90
1461;DHT22;724;49.910;12.530;2023-04-03T01:39:22;0.40;99.90
1461;DHT22;724;49.910;12.530;2023-04-03T01:41:49;0.40;99.90
1461;DHT22;724;49.910;12.530;2023-04-03T01:44:17;0.40;99.90
1461;DHT22;724;49.910;12.530;2023-04-03T01:46:44;0.40;99.90
1461;DHT22;724;49.910;12.530;2023-04-03T01:49:13;0.50;99.90
1461;DHT22;724;49.910;12.530;2023-04-03T01:51:39;0.40;99.90
1461;DHT22;724;49.910;12.530;2023-04-03T01:54:06;0.50;99.90
1461;DHT22;724;49.910;12.530;2023-04-03T01:56:33;0.50;99.90
1461;DHT22;724;49.910;12.530;2023-04-03T01:59:00;0.50;99.90
1461;DHT22;724;49.910;12.530;2023-04-03T02:01:26;0.50;99.90
1461;DHT22;724;49.910;12.530;2023-04-03T02:03:53;0.40;99.90
1461;DHT22;724;49.910;12.530;2023-04-03T02:06:21;0.40;99.90
1461;DHT22;724;49.910;12.530;2023-04-03T02:08:48;0.40;99.90
1461;DHT22;724;49.910;12.530;2023-04-03T02:11:15;0.40;99.90
1461;DHT22;724;49.910;12.530;2023-04-03T02:13:42;0.40;99.90
1461;DHT22;724;49.910;12.530;2023-04-03T02:16:09;0.40;99.90
1461;DHT22;724;49.910;12.530;2023-04-03T02:18:38;0.40;99.90
1461;DHT22;724;49.910;12.530;2023-04-03T02:21:05;0.40;99.90
1461;DHT22;724;49.910;12.530;2023-04-03T02:23:33;0.40;99.90
1461;DHT22;724;49.910;12.530;2023-04-03T02:26:06;0.40;99.90
1461;DHT22;724;49.910;12.530;2023-04-03T02:28:33;0.40;99.90
1461;DHT22;724;49.910;12.530;2023-04-03T02:31:01;0.40;99.90
1461;DHT22;724;49.910;12.530;2023-04-03T02:33:28;0.40;99.90
1461;DHT22;724;49.910;12.530;2023-04-03T02:35:56;0.40;99.90
1461;DHT22;724;49.910;12.530;2023-04-03T02:38:23;0.40;99.90
1461;DHT22;724;49.910;12.530;2023-04-03T02:40:51;0.40;99.90
1461;DHT22;724;49.910;12.530;2023-04-03T02:43:18;0.40;99.90
1461;DHT22;724;49.910;12.530;2023-04-03T02:45:45;0.40;99.90
1461;DHT22;724;49.910;12.530;2023-04-03T02:48:12;0.40;99.90
1461;DHT22;724;49.910;12.530;2023-04-03T02:50:40;0.40;99.90
1461;DHT22;724;49.910;12.530;2023-04-03T02:53:06;0.50;99.90
1461;DHT22;724;49.910;12.530;2023-04-03T02:55:33;0.40;99.90
1461;DHT22;724;49.910;12.530;2023-04-03T02:58:02;0.40;99.90
1461;DHT22;724;49.910;12.530;2023-04-03T03:00:29;0.40;99.90
1461;DHT22;724;49.910;12.530;2023-04-03T03:02:55;0.40;99.90
1461;DHT22;724;49.910;12.530;2023-04-03T03:05:22;0.40;99.90
1461;DHT22;724;49.910;12.530;2023-04-03T03:07:49;0.40;99.90
1461;DHT22;724;49.910;12.530;2023-04-03T03:10:16;0.40;99.90
1461;DHT22;724;49.910;12.530;2023-04-03T03:12:43;0.40;99.90
1461;DHT22;724;49.910;12.530;2023-04-03T03:15:11;0.30;99.90
1461;DHT22;724;49.910;12.530;2023-04-03T03:17:38;0.30;99.90
1461;DHT22;724;49.910;12.530;2023-04-03T03:20:06;0.30;99.90
1461;DHT22;724;49.910;12.530;2023-04-03T03:22:34;0.30;99.90
1461;DHT22;724;49.910;12.530;2023-04-03T03:25:02;0.30;99.90
1461;DHT22;724;49.910;12.530;2023-04-03T03:27:29;0.30;99.90
1461;DHT22;724;49.910;12.530;2023-04-03T03:29:56;0.30;99.90
1461;DHT22;724;49.910;12.530;2023-04-03T03:32:24;0.30;99.90
1461;DHT22;724;49.910;12.530;2023-04-03T03:34:51;0.40;99.90
1461;DHT22;724;49.910;12.530;2023-04-03T03:37:17;0.30;99.90
1461;DHT22;724;49.910;12.530;2023-04-03T03:39:44;0.30;99.90
1461;DHT22;724;49.910;12.530;2023-04-03T03:42:11;0.30;99.90
1461;DHT22;724;49.910;12.530;2023-04-03T03:44:38;0.30;99.90
1461;DHT22;724;49.910;12.530;2023-04-03T03:47:05;0.30;99.90
1461;DHT22;724;49.910;12.530;2023-04-03T03:49:36;0.30;99.90
1461;DHT22;724;49.910;12.530;2023-04-03T03:52:03;0.30;99.90
1461;DHT22;724;49.910;12.530;2023-04-03T03:54:30;0.30;99.90
1461;DHT22;724;49.910;12.530;2023-04-03T03:56:57;0.30;99.90
1461;DHT22;724;49.910;12.530;2023-04-03T03:59:23;0.20;99.90
1461;DHT22;724;49.910;12.530;2023-04-03T04:01:51;0.30;99.90
1461;DHT22;724;49.910;12.530;2023-04-03T04:04:18;0.30;1.00
1461;DHT22;724;49.910;12.530;2023-04-03T04:06:46;0.30;1.00
1461;DHT22;724;49.910;12.530;2023-04-03T04:09:13;0.40;1.00
1461;DHT22;724;49.910;12.530;2023-04-03T04:11:40;0.50;1.00
1461;DHT22;724;49.910;12.530;2023-04-03T04:14:07;0.40;1.00
1461;DHT22;724;49.910;12.530;2023-04-03T04:16:35;0.40;1.00
1461;DHT22;724;49.910;12.530;2023-04-03T04:19:02;0.30;1.00
1461;DHT22;724;49.910;12.530;2023-04-03T04:21:29;0.30;1.00
1461;DHT22;724;49.910;12.530;2023-04-03T04:23:57;0.20;1.00
1461;DHT22;724;49.910;12.530;2023-04-03T04:26:24;0.30;1.00
1461;DHT22;724;49.910;12.530;2023-04-03T04:28:51;0.20;1.00
1461;DHT22;724;49.910;12.530;2023-04-03T04:31:18;0.20;1.00
1461;DHT22;724;49.910;12.530;2023-04-03T04:33:44;0.20;1.00
1461;DHT22;724;49.910;12.530;2023-04-03T04:36:11;0.10;1.00
1461;DHT22;724;49.910;12.530;2023-04-03T04:38:39;0.20;1.00
1461;DHT22;724;49.910;12.530;2023-04-03T04:41:08;0.20;1.00
1461;DHT22;724;49.910;12.530;2023-04-03T04:43:35;0.10;1.00
1461;DHT22;724;49.910;12.530;2023-04-03T04:46:03;0.10;99.90
1461;DHT22;724;49.910;12.530;2023-04-03T04:48:30;0.10;99.90
1461;DHT22;724;49.910;12.530;2023-04-03T04:50:57;0.10;99.90
1461;DHT22;724;49.910;12.530;2023-04-03T04:53:24;0.10;99.90
1461;DHT22;724;49.910;12.530;2023-04-03T04:55:51;0.10;99.90
1461;DHT22;724;49.910;12.530;2023-04-03T04:58:19;0.20;99.90
1461;DHT22;724;49.910;12.530;2023-04-03T05:00:47;0.20;99.90
1461;DHT22;724;49.910;12.530;2023-04-03T05:03:14;0.20;99.90
1461;DHT22;724;49.910;12.530;2023-04-03T05:05:41;0.20;99.90
1461;DHT22;724;49.910;12.530;2023-04-03T05:08:08;0.30;99.90
1461;DHT22;724;49.910;12.530;2023-04-03T05:10:35;0.40;99.90
1461;DHT22;724;49.910;12.530;2023-04-03T05:13:01;0.50;99.90
1461;DHT22;724;49.910;12.530;2023-04-03T05:15:30;0.60;99.90
1461;DHT22;724;49.910;12.530;2023-04-03T05:17:57;0.60;99.90
1461;DHT22;724;49.910;12.530;2023-04-03T05:20:23;0.70;99.90
1461;DHT22;724;49.910;12.530;2023-04-03T05:22:50;0.70;99.90
1461;DHT22;724;49.910;12.530;2023-04-03T05:25:17;0.70;99.90
1461;DHT22;724;49.910;12.530;2023-04-03T05:27:44;1.70;99.90
1461;DHT22;724;49.910;12.530;2023-04-03T05:30:12;2.60;99.90
1461;DHT22;724;49.910;12.530;2023-04-03T05:32:40;3.50;44.20
1461;DHT22;724;49.910;12.530;2023-04-03T05:35:08;3.70;1.00
1461;DHT22;724;49.910;12.530;2023-04-03T05:37:36;4.10;1.00
1461;DHT22;724;49.910;12.530;2023-04-03T05:40:04;3.90;1.00
1461;DHT22;724;49.910;12.530;2023-04-03T05:42:31;2.50;1.00
1461;DHT22;724;49.910;12.530;2023-04-03T05:44:58;1.80;1.00
1461;DHT22;724;49.910;12.530;2023-04-03T05:47:25;2.30;1.00
1461;DHT22;724;49.910;12.530;2023-04-03T05:49:53;1.90;1.00
1461;DHT22;724;49.910;12.530;2023-04-03T05:52:22;1.80;1.00
1461;DHT22;724;49.910;12.530;2023-04-03T05:54:50;1.70;1.00
1461;DHT22;724;49.910;12.530;2023-04-03T05:57:17;1.50;1.00
1461;DHT22;724;49.910;12.530;2023-04-03T05:59:45;1.40;1.00
1461;DHT22;724;49.910;12.530;2023-04-03T06:02:14;1.10;1.00
1461;DHT22;724;49.910;12.530;2023-04-03T06:04:45;0.90;1.00
1461;DHT22;724;49.910;12.530;2023-04-03T06:07:16;1.00;1.00
1461;DHT22;724;49.910;12.530;2023-04-03T06:09:44;0.90;1.00
1461;DHT22;724;49.910;12.530;2023-04-03T06:12:11;1.10;1.00
1461;DHT22;724;49.910;12.530;2023-04-03T06:14:38;4.30;1.00
1461;DHT22;724;49.910;12.530;2023-04-03T06:17:05;2.60;1.00
1461;DHT22;724;49.910;12.530;2023-04-03T06:19:34;1.90;1.00
1461;DHT22;724;49.910;12.530;2023-04-03T06:22:01;1.60;1.00
1461;DHT22;724;49.910;12.530;2023-04-03T06:24:30;2.40;1.00
1461;DHT22;724;49.910;12.530;2023-04-03T06:26:57;2.20;1.00
1461;DHT22;724;49.910;12.530;2023-04-03T06:29:24;4.40;1.00
1461;DHT22;724;49.910;12.530;2023-04-03T06:31:51;6.10;1.00
1461;DHT22;724;49.910;12.530;2023-04-03T06:34:18;3.80;1.00
1461;DHT22;724;49.910;12.530;2023-04-03T06:36:46;2.70;1.00
1461;DHT22;724;49.910;12.530;2023-04-03T06:39:14;1.80;1.00
1461;DHT22;724;49.910;12.530;2023-04-03T06:41:43;1.80;1.00
1461;DHT22;724;49.910;12.530;2023-04-03T06:44:10;2.30;1.00
1461;DHT22;724;49.910;12.530;2023-04-03T06:46:38;1.90;1.00
1461;DHT22;724;49.910;12.530;2023-04-03T06:49:05;1.40;1.00
1461;DHT22;724;49.910;12.530;2023-04-03T06:51:34;1.50;1.00
1461;DHT22;724;49.910;12.530;2023-04-03T06:54:03;1.40;1.00
1461;DHT22;724;49.910;12.530;2023-04-03T06:56:31;1.30;1.00
1461;DHT22;724;49.910;12.530;2023-04-03T06:58:59;0.90;1.00
1461;DHT22;724;49.910;12.530;2023-04-03T07:01:27;1.00;1.00
1461;DHT22;724;49.910;12.530;2023-04-03T07:03:55;1.00;1.00
1461;DHT22;724;49.910;12.530;2023-04-03T07:06:22;0.80;1.00
1461;DHT22;724;49.910;12.530;2023-04-03T07:08:52;0.90;1.00
1461;DHT22;724;49.910;12.530;2023-04-03T07:11:19;1.00;1.00
1461;DHT22;724;49.910;12.530;2023-04-03T07:13:45;0.80;1.00
1461;DHT22;724;49.910;12.530;2023-04-03T07:16:13;1.10;1.00
1461;DHT22;724;49.910;12.530;2023-04-03T07:18:40;0.90;1.00
1461;DHT22;724;49.910;12.530;2023-04-03T07:21:07;0.90;1.00
1461;DHT22;724;49.910;12.530;2023-04-03T07:23:34;1.10;1.00
1461;DHT22;724;49.910;12.530;2023-04-03T07:26:01;1.30;99.90
1461;DHT22;724;49.910;12.530;2023-04-03T07:28:28;2.70;99.90
1461;DHT22;724;49.910;12.530;2023-04-03T07:31:00;3.80;99.90
1461;DHT22;724;49.910;12.530;2023-04-03T07:33:29;4.30;99.90
1461;DHT22;724;49.910;12.530;2023-04-03T07:35:56;7.30;99.90
1461;DHT22;724;49.910;12.530;2023-04-03T07:38:23;8.40;99.90
1461;DHT22;724;49.910;12.530;2023-04-03T07:40:51;9.10;99.90
1461;DHT22;724;49.910;12.530;2023-04-03T07:43:19;9.10;99.90
1461;DHT22;724;49.910;12.530;2023-04-03T07:45:46;9.90;99.90
1461;DHT22;724;49.910;12.530;2023-04-03T07:48:15;9.70;99.90
1461;DHT22;724;49.910;12.530;2023-04-03T07:50:44;6.40;74.10
1461;DHT22;724;49.910;12.530;2023-04-03T07:53:11;6.50;73.20
1461;DHT22;724;49.910;12.530;2023-04-03T07:55:37;7.50;85.60
1461;DHT22;724;49.910;12.530;2023-04-03T07:58:09;9.50;99.90
1461;DHT22;724;49.910;12.530;2023-04-03T08:00:36;7.20;31.30
1461;DHT22;724;49.910;12.530;2023-04-03T08:03:04;7.10;32.00
1461;DHT22;724;49.910;12.530;2023-04-03T08:05:31;6.70;18.00
1461;DHT22;724;49.910;12.530;2023-04-03T08:07:59;5.10;1.00
1461;DHT22;724;49.910;12.530;2023-04-03T08:10:26;7.60;30.50
1461;DHT22;724;49.910;12.530;2023-04-03T08:12:53;9.20;33.10
1461;DHT22;724;49.910;12.530;2023-04-03T08:15:20;8.60;1.00
1461;DHT22;724;49.910;12.530;2023-04-03T08:17:47;6.10;1.00
1461;DHT22;724;49.910;12.530;2023-04-03T08:20:13;8.40;1.00
1461;DHT22;724;49.910;12.530;2023-04-03T08:22:40;10.20;10.10
1461;DHT22;724;49.910;12.530;2023-04-03T08:25:09;9.10;1.00
1461;DHT22;724;49.910;12.530;2023-04-03T08:27:36;7.80;1.00
1461;DHT22;724;49.910;12.530;2023-04-03T08:30:04;9.20;1.00
1461;DHT22;724;49.910;12.530;2023-04-03T08:32:33;8.50;1.00
1461;DHT22;724;49.910;12.530;2023-04-03T08:34:59;9.60;1.00
1461;DHT22;724;49.910;12.530;2023-04-03T08:37:26;6.40;1.00
1461;DHT22;724;49.910;12.530;2023-04-03T08:39:53;8.00;1.00
1461;DHT22;724;49.910;12.530;2023-04-03T08:42:36;8.20;1.00
1461;DHT22;724;49.910;12.530;2023-04-03T08:45:08;7.70;1.00
1461;DHT22;724;49.910;12.530;2023-04-03T08:47:40;8.10;1.00
1461;DHT22;724;49.910;12.530;2023-04-03T08:50:13;7.90;1.00
1461;DHT22;724;49.910;12.530;2023-04-03T08:52:44;8.70;1.00
1461;DHT22;724;49.910;12.530;2023-04-03T08:55:19;9.60;1.00
1461;DHT22;724;49.910;12.530;2023-04-03T08:57:54;9.60;1.00
1461;DHT22;724;49.910;12.530;2023-04-03T09:00:27;10.00;1.00
1461;DHT22;724;49.910;12.530;2023-04-03T09:02:56;9.60;1.00
1461;DHT22;724;49.910;12.530;2023-04-03T09:05:39;10.00;1.00
1461;DHT22;724;49.910;12.530;2023-04-03T09:08:14;9.70;1.00
1461;DHT22;724;49.910;12.530;2023-04-03T09:10:45;9.60;1.00
1461;DHT22;724;49.910;12.530;2023-04-03T09:13:24;8.00;1.00
1461;DHT22;724;49.910;12.530;2023-04-03T09:15:53;10.10;1.00
1461;DHT22;724;49.910;12.530;2023-04-03T09:18:24;7.80;1.00
1461;DHT22;724;49.910;12.530;2023-04-03T09:20:57;9.60;1.00
1461;DHT22;724;49.910;12.530;2023-04-03T09:23:30;9.50;1.00
1461;DHT22;724;49.910;12.530;2023-04-03T09:26:02;10.40;1.00
1461;DHT22;724;49.910;12.530;2023-04-03T09:28:33;10.30;1.00
1461;DHT22;724;49.910;12.530;2023-04-03T09:31:02;8.50;1.00
1461;DHT22;724;49.910;12.530;2023-04-03T09:33:32;9.90;1.00
1461;DHT22;724;49.910;12.530;2023-04-03T09:36:01;10.30;1.00
1461;DHT22;724;49.910;12.530;2023-04-03T09:38:28;11.10;1.00
1461;DHT22;724;49.910;12.530;2023-04-03T09:41:05;10.90;1.00
1461;DHT22;724;49.910;12.530;2023-04-03T09:43:35;11.00;1.00
1461;DHT22;724;49.910;12.530;2023-04-03T09:49:05;9.80;1.00
1461;DHT22;724;49.910;12.530;2023-04-03T09:51:32;9.40;1.00
1461;DHT22;724;49.910;12.530;2023-04-03T09:53:59;10.40;1.00
1461;DHT22;724;49.910;12.530;2023-04-03T09:56:27;10.50;1.00
1461;DHT22;724;49.910;12.530;2023-04-03T09:59:12;11.00;1.00
1461;DHT22;724;49.910;12.530;2023-04-03T10:01:43;10.70;1.00
1461;DHT22;724;49.910;12.530;2023-04-03T10:04:18;10.50;1.00
1461;DHT22;724;49.910;12.530;2023-04-03T10:06:49;10.80;1.00
1461;DHT22;724;49.910;12.530;2023-04-03T10:09:21;11.00;1.00
1461;DHT22;724;49.910;12.530;2023-04-03T10:11:59;10.10;1.00
1461;DHT22;724;49.910;12.530;2023-04-03T10:14:28;10.60;1.00
1461;DHT22;724;49.910;12.530;2023-04-03T10:17:02;10.40;1.00
1461;DHT22;724;49.910;12.530;2023-04-03T10:19:36;10.20;1.00
1461;DHT22;724;49.910;12.530;2023-04-03T10:22:16;8.20;1.00
1461;DHT22;724;49.910;12.530;2023-04-03T10:24:52;8.70;1.00
1461;DHT22;724;49.910;12.530;2023-04-03T10:27:29;9.40;1.00
1461;DHT22;724;49.910;12.530;2023-04-03T10:30:06;10.00;1.00
1461;DHT22;724;49.910;12.530;2023-04-03T10:32:52;9.90;1.00
1461;DHT22;724;49.910;12.530;2023-04-03T10:35:32;10.20;1.00
1461;DHT22;724;49.910;12.530;2023-04-03T10:38:04;8.10;1.00
1461;DHT22;724;49.910;12.530;2023-04-03T10:40:39;7.70;1.00
1461;DHT22;724;49.910;12.530;2023-04-03T10:43:12;7.90;1.00
1461;DHT22;724;49.910;12.530;2023-04-03T10:45:53;9.40;1.00
1461;DHT22;724;49.910;12.530;2023-04-03T10:48:31;10.60;1.00
1461;DHT22;724;49.910;12.530;2023-04-03T10:51:12;10.20;1.00
1461;DHT22;724;49.910;12.530;2023-04-03T10:53:44;10.90;1.00
1461;DHT22;724;49.910;12.530;2023-04-03T10:56:18;11.00;1.00
1461;DHT22;724;49.910;12.530;2023-04-03T10:58:50;11.10;1.00
1461;DHT22;724;49.910;12.530;2023-04-03T11:01:23;10.40;1.00
1461;DHT22;724;49.910;12.530;2023-04-03T11:03:52;9.60;1.00
1461;DHT22;724;49.910;12.530;2023-04-03T11:06:22;10.20;1.00
1461;DHT22;724;49.910;12.530;2023-04-03T11:08:54;10.10;1.00
1461;DHT22;724;49.910;12.530;2023-04-03T11:11:26;9.30;1.00
1461;DHT22;724;49.910;12.530;2023-04-03T11:13:58;9.60;1.00
1461;DHT22;724;49.910;12.530;2023-04-03T11:16:30;8.00;1.00
1461;DHT22;724;49.910;12.530;2023-04-03T11:19:01;6.60;1.00
1461;DHT22;724;49.910;12.530;2023-04-03T11:21:33;7.50;1.00
1461;DHT22;724;49.910;12.530;2023-04-03T11:24:03;6.40;1.00
1461;DHT22;724;49.910;12.530;2023-04-03T11:26:37;6.80;1.00
1461;DHT22;724;49.910;12.530;2023-04-03T11:29:08;8.50;1.00
1461;DHT22;724;49.910;12.530;2023-04-03T11:31:47;8.60;1.00
1461;DHT22;724;49.910;12.530;2023-04-03T11:34:26;7.00;1.00
1461;DHT22;724;49.910;12.530;2023-04-03T11:36:58;6.80;1.00
1461;DHT22;724;49.910;12.530;2023-04-03T11:39:29;7.10;1.00
1461;DHT22;724;49.910;12.530;2023-04-03T11:42:14;7.30;1.00
1461;DHT22;724;49.910;12.530;2023-04-03T11:44:41;8.60;1.00
1461;DHT22;724;49.910;12.530;2023-04-03T11:47:11;7.90;1.00
1461;DHT22;724;49.910;12.530;2023-04-03T11:50:05;7.40;1.00
1461;DHT22;724;49.910;12.530;2023-04-03T11:52:58;6.50;1.00
1461;DHT22;724;49.910;12.530;2023-04-03T11:55:44;6.10;1.00
1461;DHT22;724;49.910;12.530;2023-04-03T11:58:19;6.10;1.00
1461;DHT22;724;49.910;12.530;2023-04-03T12:01:02;6.30;1.00
1461;DHT22;724;49.910;12.530;2023-04-03T12:03:33;7.40;1.00
1461;DHT22;724;49.910;12.530;2023-04-03T12:06:48;6.40;1.00
1461;DHT22;724;49.910;12.530;2023-04-03T12:09:32;6.40;1.00
1461;DHT22;724;49.910;12.530;2023-04-03T12:12:01;6.10;1.00
1461;DHT22;724;49.910;12.530;2023-04-03T12:14:47;7.00;1.00
1461;DHT22;724;49.910;12.530;2023-04-03T12:17:22;6.40;1.00
1461;DHT22;724;49.910;12.530;2023-04-03T12:19:51;6.10;1.00
1461;DHT22;724;49.910;12.530;2023-04-03T12:22:19;5.70;1.00
1461;DHT22;724;49.910;12.530;2023-04-03T12:24:49;7.10;1.00
1461;DHT22;724;49.910;12.530;2023-04-03T12:27:24;6.30;1.00
1461;DHT22;724;49.910;12.530;2023-04-03T12:29:58;5.40;1.00
1461;DHT22;724;49.910;12.530;2023-04-03T12:32:40;5.90;1.00
1461;DHT22;724;49.910;12.530;2023-04-03T12:35:20;6.40;1.00
1461;DHT22;724;49.910;12.530;2023-04-03T12:38:02;6.90;1.00
1461;DHT22;724;49.910;12.530;2023-04-03T12:40:36;6.80;1.00
1461;DHT22;724;49.910;12.530;2023-04-03T12:43:33;5.60;1.00
1461;DHT22;724;49.910;12.530;2023-04-03T12:46:04;5.80;1.00
1461;DHT22;724;49.910;12.530;2023-04-03T12:48:39;6.50;1.00
1461;DHT22;724;49.910;12.530;2023-04-03T12:51:15;7.10;1.00
1461;DHT22;724;49.910;12.530;2023-04-03T12:53:44;7.20;1.00
1461;DHT22;724;49.910;12.530;2023-04-03T12:56:20;5.40;1.00
1461;DHT22;724;49.910;12.530;2023-04-03T12:58:47;5.40;1.00
1461;DHT22;724;49.910;12.530;2023-04-03T13:01:16;5.90;1.00
1461;DHT22;724;49.910;12.530;2023-04-03T13:03:45;6.80;1.00
1461;DHT22;724;49.910;12.530;2023-04-03T13:06:18;6.70;1.00
1461;DHT22;724;49.910;12.530;2023-04-03T13:08:49;7.10;1.00
1461;DHT22;724;49.910;12.530;2023-04-03T13:11:17;6.20;1.00
1461;DHT22;724;49.910;12.530;2023-04-03T13:13:55;6.20;1.00
1461;DHT22;724;49.910;12.530;2023-04-03T13:16:22;6.80;1.00
1461;DHT22;724;49.910;12.530;2023-04-03T13:18:51;6.10;1.00
1461;DHT22;724;49.910;12.530;2023-04-03T13:21:21;5.60;1.00
1461;DHT22;724;49.910;12.530;2023-04-03T13:23:51;5.20;1.00
1461;DHT22;724;49.910;12.530;2023-04-03T13:26:20;5.10;1.00
1461;DHT22;724;49.910;12.530;2023-04-03T13:28:48;5.20;1.00
1461;DHT22;724;49.910;12.530;2023-04-03T13:31:23;5.70;1.00
1461;DHT22;724;49.910;12.530;2023-04-03T13:33:55;5.00;1.00
1461;DHT22;724;49.910;12.530;2023-04-03T13:36:26;5.60;1.00
1461;DHT22;724;49.910;12.530;2023-04-03T13:39:04;5.10;1.00
1461;DHT22;724;49.910;12.530;2023-04-03T13:41:34;3.80;1.00
1461;DHT22;724;49.910;12.530;2023-04-03T13:44:26;4.00;1.00
1461;DHT22;724;49.910;12.530;2023-04-03T13:46:54;3.20;1.00
1461;DHT22;724;49.910;12.530;2023-04-03T13:49:30;3.20;1.00
1461;DHT22;724;49.910;12.530;2023-04-03T13:51:59;3.90;1.00
1461;DHT22;724;49.910;12.530;2023-04-03T13:54:30;4.00;1.00
1461;DHT22;724;49.910;12.530;2023-04-03T13:56:59;4.10;1.00
1461;DHT22;724;49.910;12.530;2023-04-03T13:59:28;3.90;1.00
1461;DHT22;724;49.910;12.530;2023-04-03T14:02:10;4.40;1.00
1461;DHT22;724;49.910;12.530;2023-04-03T14:04:48;4.20;1.00
1461;DHT22;724;49.910;12.530;2023-04-03T14:07:17;4.20;1.00
1461;DHT22;724;49.910;12.530;2023-04-03T14:09:46;3.60;1.00
1461;DHT22;724;49.910;12.530;2023-04-03T14:12:15;3.60;1.00
1461;DHT22;724;49.910;12.530;2023-04-03T14:14:43;3.40;1.00
1461;DHT22;724;49.910;12.530;2023-04-03T14:17:14;3.90;1.00
1461;DHT22;724;49.910;12.530;2023-04-03T14:19:43;4.10;1.00
1461;DHT22;724;49.910;12.530;2023-04-03T14:22:15;3.60;1.00
1461;DHT22;724;49.910;12.530;2023-04-03T14:24:44;4.20;1.00
1461;DHT22;724;49.910;12.530;2023-04-03T14:27:17;4.00;1.00
1461;DHT22;724;49.910;12.530;2023-04-03T14:29:44;4.10;1.00
1461;DHT22;724;49.910;12.530;2023-04-03T14:32:12;4.20;1.00
1461;DHT22;724;49.910;12.530;2023-04-03T14:34:40;4.40;1.00
1461;DHT22;724;49.910;12.530;2023-04-03T14:37:10;4.30;1.00
1461;DHT22;724;49.910;12.530;2023-04-03T14:39:37;4.40;1.00
1461;DHT22;724;49.910;12.530;2023-04-03T14:42:06;4.50;1.00
1461;DHT22;724;49.910;12.530;2023-04-03T14:44:33;4.20;1.00
1461;DHT22;724;49.910;12.530;2023-04-03T14:47:00;3.90;1.00
1461;DHT22;724;49.910;12.530;2023-04-03T14:49:28;4.10;1.00
1461;DHT22;724;49.910;12.530;2023-04-03T14:51:55;4.10;1.00
1461;DHT22;724;49.910;12.530;2023-04-03T14:54:23;4.10;1.00
1461;DHT22;724;49.910;12.530;2023-04-03T14:56:53;3.90;1.00
1461;DHT22;724;49.910;12.530;2023-04-03T14:59:21;3.80;1.00
1461;DHT22;724;49.910;12.530;2023-04-03T15:01:48;3.80;1.00
1461;DHT22;724;49.910;12.530;2023-04-03T15:04:17;3.80;1.00
1461;DHT22;724;49.910;12.530;2023-04-03T15:06:45;3.60;1.00
1461;DHT22;724;49.910;12.530;2023-04-03T15:09:19;3.40;1.00
1461;DHT22;724;49.910;12.530;2023-04-03T15:11:47;3.50;1.00
1461;DHT22;724;49.910;12.530;2023-04-03T15:14:13;3.50;1.00
1461;DHT22;724;49.910;12.530;2023-04-03T15:16:42;3.40;1.00
1461;DHT22;724;49.910;12.530;2023-04-03T15:19:09;3.50;1.00
1461;DHT22;724;49.910;12.530;2023-04-03T15:21:36;3.40;1.00
1461;DHT22;724;49.910;12.530;2023-04-03T15:24:03;3.10;1.00
1461;DHT22;724;49.910;12.530;2023-04-03T15:26:30;3.00;1.00
1461;DHT22;724;49.910;12.530;2023-04-03T15:28:57;3.00;1.00
1461;DHT22;724;49.910;12.530;2023-04-03T15:31:24;2.70;1.00
1461;DHT22;724;49.910;12.530;2023-04-03T15:33:52;2.80;1.00
1461;DHT22;724;49.910;12.530;2023-04-03T15:36:19;2.70;1.00
1461;DHT22;724;49.910;12.530;2023-04-03T15:38:46;2.60;1.00
1461;DHT22;724;49.910;12.530;2023-04-03T15:41:13;2.70;1.00
1461;DHT22;724;49.910;12.530;2023-04-03T15:43:39;2.60;1.00
1461;DHT22;724;49.910;12.530;2023-04-03T15:46:07;2.70;1.00
1461;DHT22;724;49.910;12.530;2023-04-03T15:48:33;2.70;1.00
1461;DHT22;724;49.910;12.530;2023-04-03T15:51:02;2.60;1.00
1461;DHT22;724;49.910;12.530;2023-04-03T15:53:28;2.30;1.00
1461;DHT22;724;49.910;12.530;2023-04-03T15:55:55;2.40;1.00
1461;DHT22;724;49.910;12.530;2023-04-03T15:58:22;2.40;1.00
1461;DHT22;724;49.910;12.530;2023-04-03T16:00:50;2.30;1.00
1461;DHT22;724;49.910;12.530;2023-04-03T16:03:19;2.20;1.00
1461;DHT22;724;49.910;12.530;2023-04-03T16:05:47;2.10;1.00
1461;DHT22;724;49.910;12.530;2023-04-03T16:08:16;2.20;1.00
1461;DHT22;724;49.910;12.530;2023-04-03T16:10:43;2.20;1.00
1461;DHT22;724;49.910;12.530;2023-04-03T16:13:12;2.00;1.00
1461;DHT22;724;49.910;12.530;2023-04-03T16:15:39;1.90;1.00
1461;DHT22;724;49.910;12.530;2023-04-03T16:18:07;2.00;1.00
1461;DHT22;724;49.910;12.530;2023-04-03T16:20:34;1.80;1.00
1461;DHT22;724;49.910;12.530;2023-04-03T16:23:01;1.90;1.00
1461;DHT22;724;49.910;12.530;2023-04-03T16:25:29;1.80;1.00
1461;DHT22;724;49.910;12.530;2023-04-03T16:27:56;1.80;1.00
1461;DHT22;724;49.910;12.530;2023-04-03T16:30:23;1.80;1.00
1461;DHT22;724;49.910;12.530;2023-04-03T16:32:50;1.60;1.00
1461;DHT22;724;49.910;12.530;2023-04-03T16:35:17;1.60;1.00
1461;DHT22;724;49.910;12.530;2023-04-03T16:37:44;1.50;1.00
1461;DHT22;724;49.910;12.530;2023-04-03T16:40:11;1.50;1.00
1461;DHT22;724;49.910;12.530;2023-04-03T16:42:39;1.50;1.00
1461;DHT22;724;49.910;12.530;2023-04-03T16:45:07;1.50;1.00
1461;DHT22;724;49.910;12.530;2023-04-03T16:47:34;1.50;1.00
1461;DHT22;724;49.910;12.530;2023-04-03T16:50:01;1.60;1.00